Thomas G. Thompson — KTDQ — position and weather

sailwx.info

Track history (hours):
 
Tides and Currents Weather Stations Pressure Air Temp Water Temp Dewpoint Dewpoint Depression Visibility Wind Speed Wind Dir Waves Ship Positions

Oceanographic research ship Thomas G. Thompson (USA)

Ship's website: http://www.ocean.washington.edu/vessels/TGT/tgt.html

Detailed information on ship capabilities available from University of Delaware's Ocean Information Center.

Owner: UNIVERSITY OF WASHINGTON, SEATTLE, WA. More information available from US FCC via Universal Licensing System and Coast Guard Vessel Documentation Center.

Last reported at 2015-Aug-02 11:33 UTC. Time now 2015-Aug-02 12:24 UTC.
Position N 44°38' W 124°18'.

Type: Other ship. MMSI: 366345000.

Date/timePositionNaut miles runAvg speedWind from/ knotsBaromVisibWave heightAir tempDewpointWater temp
2015-Aug-02 11:33N 44°38' W 124°18'0 0.0
2015-Aug-02 06:33N 44°38' W 124°18'0 0.0
2015-Aug-02 02:32N 44°38' W 124°18'0 0.0
2015-Aug-02 01:33N 44°38' W 124°18'0 0.0
2015-Aug-02 00:19N 44°38' W 124°18'0 0.0
2015-Aug-01 23:33N 44°38' W 124°18'0 0.0
2015-Aug-01 16:16N 44°38' W 124°18'0 0.0
2015-Aug-01 15:33N 44°38' W 124°18'0 0.0
2015-Aug-01 14:33N 44°38' W 124°18'0 0.0
2015-Aug-01 13:33N 44°38' W 124°18'0 0.0
2015-Aug-01 12:33N 44°38' W 124°18'0 0.0
2015-Aug-01 11:34N 44°38' W 124°18'1 0.5
2015-Aug-01 10:33N 44°38' W 124°19'2 2.0
2015-Aug-01 09:33N 44°38' W 124°22'0 0.1
2015-Aug-01 08:33N 44°38' W 124°22'0 0.0
2015-Aug-01 07:18N 44°38' W 124°22'0 0.1
2015-Aug-01 06:28N 44°38' W 124°22'0 0.1
2015-Aug-01 05:23N 44°38' W 124°22'0 0.0
2015-Aug-01 04:33N 44°38' W 124°22'0 0.0
2015-Aug-01 03:33N 44°38' W 124°22'0 0.1
2015-Aug-01 02:07N 44°38' W 124°22'3 4.6
2015-Aug-01 01:33N 44°38' W 124°18'0 0.1
2015-Aug-01 00:33N 44°38' W 124°18'0 0.0
2015-Jul-31 23:33N 44°38' W 124°18'0 0.0
2015-Jul-31 22:33N 44°38' W 124°18'0 0.0
2015-Jul-31 21:33N 44°38' W 124°18'0 0.0
2015-Jul-31 20:33N 44°38' W 124°18'0 0.0
2015-Jul-31 19:33N 44°38' W 124°18'0 0.3
2015-Jul-31 18:33N 44°38' W 124°19'6 0.1
2015-Jul-29 18:33N 44°36' W 124°11'1212.1
2015-Jul-29 17:33N 44°40' W 124°27'9 9.5
2015-Jul-29 16:34N 44°43' W 124°39'1212.0
2015-Jul-29 15:33N 44°47' W 124°56'1211.9
2015-Jul-29 14:33N 44°50' W 125°12'1211.8
2015-Jul-29 13:34N 44°53' W 125°28'1211.9
2015-Jul-29 12:33N 44°57' W 125°44'1212.0
2015-Jul-29 11:33N 45°00' W 125°60'1211.9
2015-Jul-29 10:32N 45°04' W 126°16'1212.1
2015-Jul-29 09:31N 45°08' W 126°33'1212.1
2015-Jul-29 08:33N 45°11' W 126°49'2512.3
2015-Jul-29 06:31N 45°19' W 127°23'  
2015-Jul-24 11:10N 44°22' W 124°57'8 7.8
2015-Jul-24 10:08N 44°29' W 125°04'  
Track history (hours):
 
Tides and Currents Weather Stations Pressure Air Temp Water Temp Dewpoint Dewpoint Depression Visibility Wind Speed Wind Dir Waves Ship Positions

Oceanographic research ship Thomas G. Thompson (USA)

Ship's website: http://www.ocean.washington.edu/vessels/TGT/tgt.html

Detailed information on ship capabilities available from University of Delaware's Ocean Information Center.

Owner: UNIVERSITY OF WASHINGTON, SEATTLE, WA. More information available from US FCC via Universal Licensing System and Coast Guard Vessel Documentation Center.

Last reported at 2015-Aug-02 11:33 UTC. Time now 2015-Aug-02 12:24 UTC.
Position N 44°38' W 124°18'.

Type: Other ship. MMSI: 366345000.

Date/timePositionNaut miles runAvg speedWind from/ knotsBaromVisibWave heightAir tempDewpointWater temp
2015-Aug-02 11:33N 44°38' W 124°18'0 0.0
2015-Aug-02 06:33N 44°38' W 124°18'0 0.0
2015-Aug-02 02:32N 44°38' W 124°18'0 0.0
2015-Aug-02 01:33N 44°38' W 124°18'0 0.0
2015-Aug-02 00:19N 44°38' W 124°18'0 0.0
2015-Aug-01 23:33N 44°38' W 124°18'0 0.0
2015-Aug-01 16:16N 44°38' W 124°18'0 0.0
2015-Aug-01 15:33N 44°38' W 124°18'0 0.0
2015-Aug-01 14:33N 44°38' W 124°18'0 0.0
2015-Aug-01 13:33N 44°38' W 124°18'0 0.0
2015-Aug-01 12:33N 44°38' W 124°18'0 0.0
2015-Aug-01 11:34N 44°38' W 124°18'1 0.5
2015-Aug-01 10:33N 44°38' W 124°19'2 2.0
2015-Aug-01 09:33N 44°38' W 124°22'0 0.1
2015-Aug-01 08:33N 44°38' W 124°22'0 0.0
2015-Aug-01 07:18N 44°38' W 124°22'0 0.1
2015-Aug-01 06:28N 44°38' W 124°22'0 0.1
2015-Aug-01 05:23N 44°38' W 124°22'0 0.0
2015-Aug-01 04:33N 44°38' W 124°22'0 0.0
2015-Aug-01 03:33N 44°38' W 124°22'0 0.1
2015-Aug-01 02:07N 44°38' W 124°22'3 4.6
2015-Aug-01 01:33N 44°38' W 124°18'0 0.1
2015-Aug-01 00:33N 44°38' W 124°18'0 0.0
2015-Jul-31 23:33N 44°38' W 124°18'0 0.0
2015-Jul-31 22:33N 44°38' W 124°18'0 0.0
2015-Jul-31 21:33N 44°38' W 124°18'0 0.0
2015-Jul-31 20:33N 44°38' W 124°18'0 0.0
2015-Jul-31 19:33N 44°38' W 124°18'0 0.3
2015-Jul-31 18:33N 44°38' W 124°19'6 0.1
2015-Jul-29 18:33N 44°36' W 124°11'1212.1
2015-Jul-29 17:33N 44°40' W 124°27'9 9.5
2015-Jul-29 16:34N 44°43' W 124°39'1212.0
2015-Jul-29 15:33N 44°47' W 124°56'1211.9
2015-Jul-29 14:33N 44°50' W 125°12'1211.8
2015-Jul-29 13:34N 44°53' W 125°28'1211.9
2015-Jul-29 12:33N 44°57' W 125°44'1212.0
2015-Jul-29 11:33N 45°00' W 125°60'1211.9
2015-Jul-29 10:32N 45°04' W 126°16'1212.1
2015-Jul-29 09:31N 45°08' W 126°33'1212.1
2015-Jul-29 08:33N 45°11' W 126°49'2512.3
2015-Jul-29 06:31N 45°19' W 127°23'  
2015-Jul-24 11:10N 44°22' W 124°57'8 7.8
2015-Jul-24 10:08N 44°29' W 125°04'  

Dump ship's entire track history